sensor_id;sensor_type;location;lat;lon;timestamp;pressure;altitude;pressure_sealevel;temperature;humidity
17950;BME280;9100;48.700;9.316;2022-11-20T00:00:12;97227.20000000001;;;7.95;100
17950;BME280;9100;48.700;9.316;2022-11-20T00:01:13;97219.5;;;7.95;100
17950;BME280;9100;48.700;9.316;2022-11-20T00:02:12;97220.5;;;7.94;100
17950;BME280;9100;48.700;9.316;2022-11-20T00:03:12;97213.8;;;7.93;100
17950;BME280;9100;48.700;9.316;2022-11-20T00:04:12;97214;;;7.91;100
17950;BME280;9100;48.700;9.316;2022-11-20T00:04:17;97217.3;;;7.92;100
17950;BME280;9100;48.700;9.316;2022-11-20T00:05:12;97222.2;;;7.93;100
17950;BME280;9100;48.700;9.316;2022-11-20T00:06:13;97224.2;;;7.91;100
17950;BME280;9100;48.700;9.316;2022-11-20T00:07:12;97214.8;;;7.92;100
17950;BME280;9100;48.700;9.316;2022-11-20T00:08:12;97215.7;;;7.91;100
17950;BME280;9100;48.700;9.316;2022-11-20T00:09:12;97213.2;;;7.91;100
17950;BME280;9100;48.700;9.316;2022-11-20T00:09:17;97214.9;;;7.9;100
17950;BME280;9100;48.700;9.316;2022-11-20T00:10:12;97218.3;;;7.91;100
17950;BME280;9100;48.700;9.316;2022-11-20T00:11:13;97223.5;;;7.89;100
17950;BME280;9100;48.700;9.316;2022-11-20T00:12:12;97222.1;;;7.87;100
17950;BME280;9100;48.700;9.316;2022-11-20T00:13:12;97221.7;;;7.83;100
17950;BME280;9100;48.700;9.316;2022-11-20T00:14:12;97221.2;;;7.79;100
17950;BME280;9100;48.700;9.316;2022-11-20T00:14:17;97225.5;;;7.79;100
17950;BME280;9100;48.700;9.316;2022-11-20T00:15:12;97227.3;;;7.78;100
17950;BME280;9100;48.700;9.316;2022-11-20T00:16:12;97224.90000000001;;;7.77;100
17950;BME280;9100;48.700;9.316;2022-11-20T00:17:12;97224.1;;;7.76;100
17950;BME280;9100;48.700;9.316;2022-11-20T00:18:12;97225.09999999999;;;7.75;100
17950;BME280;9100;48.700;9.316;2022-11-20T00:19:12;97229.6;;;7.73;100
17950;BME280;9100;48.700;9.316;2022-11-20T00:19:17;97228;;;7.72;100
17950;BME280;9100;48.700;9.316;2022-11-20T00:20:12;97226;;;7.74;100
17950;BME280;9100;48.700;9.316;2022-11-20T00:21:12;97228.9;;;7.71;100
17950;BME280;9100;48.700;9.316;2022-11-20T00:22:12;97232.4;;;7.7;100
17950;BME280;9100;48.700;9.316;2022-11-20T00:23:12;97224;;;7.7;100
17950;BME280;9100;48.700;9.316;2022-11-20T00:24:12;97223.6;;;7.66;100
17950;BME280;9100;48.700;9.316;2022-11-20T00:24:17;97226.09999999999;;;7.66;100
17950;BME280;9100;48.700;9.316;2022-11-20T00:25:12;97229.4;;;7.67;100
17950;BME280;9100;48.700;9.316;2022-11-20T00:26:14;97224.5;;;7.65;100
17950;BME280;9100;48.700;9.316;2022-11-20T00:27:12;97231.4;;;7.65;100
17950;BME280;9100;48.700;9.316;2022-11-20T00:28:12;97226.4;;;7.63;100
17950;BME280;9100;48.700;9.316;2022-11-20T00:29:12;97220;;;7.61;100
17950;BME280;9100;48.700;9.316;2022-11-20T00:29:17;97227.4;;;7.62;100
17950;BME280;9100;48.700;9.316;2022-11-20T00:30:12;97226.8;;;7.6;100
17950;BME280;9100;48.700;9.316;2022-11-20T00:31:13;97224.2;;;7.6;100
17950;BME280;9100;48.700;9.316;2022-11-20T00:32:12;97226;;;7.6;100
17950;BME280;9100;48.700;9.316;2022-11-20T00:33:12;97227.70000000001;;;7.59;100
17950;BME280;9100;48.700;9.316;2022-11-20T00:34:12;97223.6;;;7.58;100
17950;BME280;9100;48.700;9.316;2022-11-20T00:34:17;97226.2;;;7.58;100
17950;BME280;9100;48.700;9.316;2022-11-20T00:35:12;97227;;;7.59;100
17950;BME280;9100;48.700;9.316;2022-11-20T00:36:13;97229.3;;;7.6;100
17950;BME280;9100;48.700;9.316;2022-11-20T00:37:12;97225.8;;;7.61;100
17950;BME280;9100;48.700;9.316;2022-11-20T00:38:12;97232.5;;;7.62;100
17950;BME280;9100;48.700;9.316;2022-11-20T00:39:12;97224.2;;;7.6;100
17950;BME280;9100;48.700;9.316;2022-11-20T00:39:17;97230.1;;;7.61;100
17950;BME280;9100;48.700;9.316;2022-11-20T00:40:12;97231.7;;;7.62;100
17950;BME280;9100;48.700;9.316;2022-11-20T00:41:12;97229.3;;;7.6;100
17950;BME280;9100;48.700;9.316;2022-11-20T00:42:12;97226.8;;;7.6;100
17950;BME280;9100;48.700;9.316;2022-11-20T00:43:12;97231.1;;;7.6;100
17950;BME280;9100;48.700;9.316;2022-11-20T00:44:12;97225.40000000001;;;7.58;100
17950;BME280;9100;48.700;9.316;2022-11-20T00:44:17;97229.7;;;7.57;100
17950;BME280;9100;48.700;9.316;2022-11-20T00:45:12;97235.40000000001;;;7.59;100
17950;BME280;9100;48.700;9.316;2022-11-20T00:46:13;97225;;;7.61;100
17950;BME280;9100;48.700;9.316;2022-11-20T00:47:12;97224.1;;;7.62;100
17950;BME280;9100;48.700;9.316;2022-11-20T00:48:12;97235.2;;;7.61;100
17950;BME280;9100;48.700;9.316;2022-11-20T00:49:12;97238.7;;;7.6;100
17950;BME280;9100;48.700;9.316;2022-11-20T00:49:17;97230.3;;;7.59;100
17950;BME280;9100;48.700;9.316;2022-11-20T00:50:12;97237.90000000001;;;7.59;100
17950;BME280;9100;48.700;9.316;2022-11-20T00:51:13;97231.1;;;7.6;100
17950;BME280;9100;48.700;9.316;2022-11-20T00:52:12;97238.7;;;7.6;100
17950;BME280;9100;48.700;9.316;2022-11-20T00:53:12;97238.9;;;7.58;100
17950;BME280;9100;48.700;9.316;2022-11-20T00:54:12;97242.4;;;7.57;100
17950;BME280;9100;48.700;9.316;2022-11-20T00:54:17;97238.3;;;7.56;100
17950;BME280;9100;48.700;9.316;2022-11-20T00:55:12;97245.9;;;7.56;100
17950;BME280;9100;48.700;9.316;2022-11-20T00:56:13;97241;;;7.55;100
17950;BME280;9100;48.700;9.316;2022-11-20T00:57:12;97240.20000000001;;;7.54;100
17950;BME280;9100;48.700;9.316;2022-11-20T00:58:12;97243.1;;;7.51;100
17950;BME280;9100;48.700;9.316;2022-11-20T00:59:12;97242.5;;;7.49;100
17950;BME280;9100;48.700;9.316;2022-11-20T00:59:17;97248.29999999999;;;7.5;100
17950;BME280;9100;48.700;9.316;2022-11-20T01:00:12;97245;;;7.49;100
17950;BME280;9100;48.700;9.316;2022-11-20T01:01:14;97247.5;;;7.49;100
17950;BME280;9100;48.700;9.316;2022-11-20T01:02:12;97242.5;;;7.49;100
17950;BME280;9100;48.700;9.316;2022-11-20T01:03:12;97240.9;;;7.48;100
17950;BME280;9100;48.700;9.316;2022-11-20T01:04:12;97252;;;7.47;100
17950;BME280;9100;48.700;9.316;2022-11-20T01:04:17;97249.5;;;7.47;100
17950;BME280;9100;48.700;9.316;2022-11-20T01:05:12;97250.09999999999;;;7.49;100
17950;BME280;9100;48.700;9.316;2022-11-20T01:06:13;97249.90000000001;;;7.51;100
17950;BME280;9100;48.700;9.316;2022-11-20T01:07:12;97253.3;;;7.51;100
17950;BME280;9100;48.700;9.316;2022-11-20T01:08:12;97253.3;;;7.51;100
17950;BME280;9100;48.700;9.316;2022-11-20T01:09:13;97259.1;;;7.52;100
17950;BME280;9100;48.700;9.316;2022-11-20T01:09:17;97250.7;;;7.51;100
17950;BME280;9100;48.700;9.316;2022-11-20T01:10:12;97253.9;;;7.53;100
17950;BME280;9100;48.700;9.316;2022-11-20T01:11:13;97251.3;;;7.53;100
17950;BME280;9100;48.700;9.316;2022-11-20T01:12:12;97253.09999999999;;;7.53;100
17950;BME280;9100;48.700;9.316;2022-11-20T01:13:12;97255.5;;;7.54;100
17950;BME280;9100;48.700;9.316;2022-11-20T01:14:13;97254.7;;;7.54;100
17950;BME280;9100;48.700;9.316;2022-11-20T01:14:17;97248.8;;;7.53;100
17950;BME280;9100;48.700;9.316;2022-11-20T01:15:12;97252;;;7.55;100
17950;BME280;9100;48.700;9.316;2022-11-20T01:16:13;97254.5;;;7.55;100
17950;BME280;9100;48.700;9.316;2022-11-20T01:17:12;97252.9;;;7.54;100
17950;BME280;9100;48.700;9.316;2022-11-20T01:18:12;97262.09999999999;;;7.55;100
17950;BME280;9100;48.700;9.316;2022-11-20T01:19:13;97257.1;;;7.55;100
17950;BME280;9100;48.700;9.316;2022-11-20T01:19:18;97256.3;;;7.55;100
17950;BME280;9100;48.700;9.316;2022-11-20T01:20:12;97246.90000000001;;;7.55;100
17950;BME280;9100;48.700;9.316;2022-11-20T01:21:13;97258.6;;;7.56;100
17950;BME280;9100;48.700;9.316;2022-11-20T01:22:12;97253.5;;;7.56;100
17950;BME280;9100;48.700;9.316;2022-11-20T01:23:12;97257.7;;;7.57;100
17950;BME280;9100;48.700;9.316;2022-11-20T01:24:13;97256.9;;;7.57;100
17950;BME280;9100;48.700;9.316;2022-11-20T01:24:17;97257.7;;;7.57;100
17950;BME280;9100;48.700;9.316;2022-11-20T01:25:12;97256.7;;;7.58;100
17950;BME280;9100;48.700;9.316;2022-11-20T01:26:13;97256.7;;;7.58;100
17950;BME280;9100;48.700;9.316;2022-11-20T01:27:12;97263.5;;;7.58;100
17950;BME280;9100;48.700;9.316;2022-11-20T01:28:12;97265.3;;;7.57;100
17950;BME280;9100;48.700;9.316;2022-11-20T01:29:13;97261.2;;;7.56;100
17950;BME280;9100;48.700;9.316;2022-11-20T01:29:18;97268.8;;;7.56;100
17950;BME280;9100;48.700;9.316;2022-11-20T01:30:12;97264.70000000001;;;7.55;100
17950;BME280;9100;48.700;9.316;2022-11-20T01:31:13;97264.5;;;7.57;100
17950;BME280;9100;48.700;9.316;2022-11-20T01:32:12;97265.5;;;7.56;100
17950;BME280;9100;48.700;9.316;2022-11-20T01:33:12;97262.09999999999;;;7.55;100
17950;BME280;9100;48.700;9.316;2022-11-20T01:34:13;97265.59999999999;;;7.54;100
17950;BME280;9100;48.700;9.316;2022-11-20T01:34:17;97257.2;;;7.54;100
17950;BME280;9100;48.700;9.316;2022-11-20T01:35:12;97259.6;;;7.55;100
17950;BME280;9100;48.700;9.316;2022-11-20T01:36:13;97267.2;;;7.55;100
17950;BME280;9100;48.700;9.316;2022-11-20T01:37:12;97263.7;;;7.56;100
17950;BME280;9100;48.700;9.316;2022-11-20T01:38:12;97267;;;7.57;100
17950;BME280;9100;48.700;9.316;2022-11-20T01:39:13;97261;;;7.58;100
17950;BME280;9100;48.700;9.316;2022-11-20T01:39:18;97262.09999999999;;;7.55;100
17950;BME280;9100;48.700;9.316;2022-11-20T01:40:12;97264.5;;;7.57;100
17950;BME280;9100;48.700;9.316;2022-11-20T01:41:13;97255.1;;;7.57;100
17950;BME280;9100;48.700;9.316;2022-11-20T01:42:12;97258.6;;;7.56;100
17950;BME280;9100;48.700;9.316;2022-11-20T01:43:13;97251.8;;;7.57;100
17950;BME280;9100;48.700;9.316;2022-11-20T01:44:13;97259.79999999999;;;7.54;100
17950;BME280;9100;48.700;9.316;2022-11-20T01:44:18;97252.09999999999;;;7.54;100
17950;BME280;9100;48.700;9.316;2022-11-20T01:46:13;97253.9;;;7.53;100
17950;BME280;9100;48.700;9.316;2022-11-20T01:46:18;97259.79999999999;;;7.54;100
17950;BME280;9100;48.700;9.316;2022-11-20T01:47:13;97253.09999999999;;;7.53;100
17950;BME280;9100;48.700;9.316;2022-11-20T01:48:12;97252.3;;;7.52;100
17950;BME280;9100;48.700;9.316;2022-11-20T01:49:14;97244.8;;;7.51;100
17950;BME280;9100;48.700;9.316;2022-11-20T01:49:18;97247.40000000001;;;7.51;100
17950;BME280;9100;48.700;9.316;2022-11-20T01:50:13;97249.1;;;7.5;100
17950;BME280;9100;48.700;9.316;2022-11-20T01:51:13;97246.7;;;7.49;100
17950;BME280;9100;48.700;9.316;2022-11-20T01:52:13;97240.9;;;7.48;100
17950;BME280;9100;48.700;9.316;2022-11-20T01:53:13;97247.90000000001;;;7.46;100
17950;BME280;9100;48.700;9.316;2022-11-20T01:54:13;97243.1;;;7.43;100
17950;BME280;9100;48.700;9.316;2022-11-20T01:54:18;97247.29999999999;;;7.44;100
17950;BME280;9100;48.700;9.316;2022-11-20T01:55:13;97242.8;;;7.46;100
17950;BME280;9100;48.700;9.316;2022-11-20T01:56:12;97239.59999999999;;;7.44;100
17950;BME280;9100;48.700;9.316;2022-11-20T01:57:12;97244.7;;;7.44;100
17950;BME280;9100;48.700;9.316;2022-11-20T01:58:12;97241.4;;;7.44;100
17950;BME280;9100;48.700;9.316;2022-11-20T01:59:13;97237.2;;;7.43;100
17950;BME280;9100;48.700;9.316;2022-11-20T01:59:18;97238.2;;;7.42;100
17950;BME280;9100;48.700;9.316;2022-11-20T02:00:13;97236.5;;;7.42;100
17950;BME280;9100;48.700;9.316;2022-11-20T02:01:12;97240.59999999999;;;7.43;100
17950;BME280;9100;48.700;9.316;2022-11-20T02:02:12;97245;;;7.41;100
17950;BME280;9100;48.700;9.316;2022-11-20T02:03:13;97247.6;;;7.41;100
17950;BME280;9100;48.700;9.316;2022-11-20T02:04:12;97240.9;;;7.4;100
17950;BME280;9100;48.700;9.316;2022-11-20T02:04:17;97247;;;7.39;100
17950;BME280;9100;48.700;9.316;2022-11-20T02:05:14;97240.9;;;7.4;100
17950;BME280;9100;48.700;9.316;2022-11-20T02:06:14;97238.4;;;7.4;100
17950;BME280;9100;48.700;9.316;2022-11-20T02:07:12;97240.9;;;7.4;100
17950;BME280;9100;48.700;9.316;2022-11-20T02:08:12;97230.9;;;7.39;100
17950;BME280;9100;48.700;9.316;2022-11-20T02:09:13;97238.7;;;7.37;100
17950;BME280;9100;48.700;9.316;2022-11-20T02:09:17;97238.7;;;7.37;100
17950;BME280;9100;48.700;9.316;2022-11-20T02:10:12;97237.09999999999;;;7.36;100
17950;BME280;9100;48.700;9.316;2022-11-20T02:11:12;97242.4;;;7.35;100
17950;BME280;9100;48.700;9.316;2022-11-20T02:12:12;97242.6;;;7.33;100
17950;BME280;9100;48.700;9.316;2022-11-20T02:13:12;97241;;;7.32;100
17950;BME280;9100;48.700;9.316;2022-11-20T02:14:12;97242.1;;;7.29;100
17950;BME280;9100;48.700;9.316;2022-11-20T02:14:17;97243.7;;;7.3;100
17950;BME280;9100;48.700;9.316;2022-11-20T02:15:12;97242.7;;;7.31;100
17950;BME280;9100;48.700;9.316;2022-11-20T02:16:14;97246.40000000001;;;7.29;100
17950;BME280;9100;48.700;9.316;2022-11-20T02:17:12;97243.9;;;7.29;100
17950;BME280;9100;48.700;9.316;2022-11-20T02:18:13;97240.09999999999;;;7.25;100
17950;BME280;9100;48.700;9.316;2022-11-20T02:19:15;97241.8;;;7.24;100
17950;BME280;9100;48.700;9.316;2022-11-20T02:19:20;97242;;;7.23;100
17950;BME280;9100;48.700;9.316;2022-11-20T02:20:12;97248.6;;;7.24;100
17950;BME280;9100;48.700;9.316;2022-11-20T02:21:14;97242.8;;;7.23;100
17950;BME280;9100;48.700;9.316;2022-11-20T02:22:13;97251.2;;;7.24;100
17950;BME280;9100;48.700;9.316;2022-11-20T02:23:14;97252.8;;;7.25;100
17950;BME280;9100;48.700;9.316;2022-11-20T02:24:13;97250.2;;;7.25;100
17950;BME280;9100;48.700;9.316;2022-11-20T02:24:17;97256.3;;;7.24;100
17950;BME280;9100;48.700;9.316;2022-11-20T02:25:12;97252.59999999999;;;7.26;100
17950;BME280;9100;48.700;9.316;2022-11-20T02:26:12;97260.90000000001;;;7.28;100
17950;BME280;9100;48.700;9.316;2022-11-20T02:27:13;97254;;;7.29;100
17950;BME280;9100;48.700;9.316;2022-11-20T02:28:12;97256.4;;;7.3;100
17950;BME280;9100;48.700;9.316;2022-11-20T02:29:13;97258;;;7.31;100
17950;BME280;9100;48.700;9.316;2022-11-20T02:29:17;97256.2;;;7.32;100
17950;BME280;9100;48.700;9.316;2022-11-20T02:30:12;97247.7;;;7.33;100
17950;BME280;9100;48.700;9.316;2022-11-20T02:31:12;97255.9;;;7.35;100
17950;BME280;9100;48.700;9.316;2022-11-20T02:32:17;97252.4;;;7.36;100
17950;BME280;9100;48.700;9.316;2022-11-20T02:33:12;97253.2;;;7.37;100
17950;BME280;9100;48.700;9.316;2022-11-20T02:34:12;97250.8;;;7.35;100
17950;BME280;9100;48.700;9.316;2022-11-20T02:34:17;97253.2;;;7.37;100
17950;BME280;9100;48.700;9.316;2022-11-20T02:35:38;97252.20000000001;;;7.38;100
17950;BME280;9100;48.700;9.316;2022-11-20T02:36:15;97254;;;7.37;100
17950;BME280;9100;48.700;9.316;2022-11-20T02:37:12;97251.4;;;7.37;100
17950;BME280;9100;48.700;9.316;2022-11-20T02:38:13;97252.4;;;7.36;100
17950;BME280;9100;48.700;9.316;2022-11-20T02:39:12;97255.1;;;7.35;100
17950;BME280;9100;48.700;9.316;2022-11-20T02:39:17;97256.8;;;7.34;100
17950;BME280;9100;48.700;9.316;2022-11-20T02:40:12;97255.9;;;7.35;100
17950;BME280;9100;48.700;9.316;2022-11-20T02:41:12;97253.2;;;7.37;100
17950;BME280;9100;48.700;9.316;2022-11-20T02:42:12;97254.8;;;7.38;100
17950;BME280;9100;48.700;9.316;2022-11-20T02:43:12;97244.8;;;7.36;100
17950;BME280;9100;48.700;9.316;2022-11-20T02:44:12;97248.90000000001;;;7.37;100
17950;BME280;9100;48.700;9.316;2022-11-20T02:44:17;97251.4;;;7.37;100
17950;BME280;9100;48.700;9.316;2022-11-20T02:45:12;97255.6;;;7.38;100
17950;BME280;9100;48.700;9.316;2022-11-20T02:46:13;97241.9;;;7.39;100
17950;BME280;9100;48.700;9.316;2022-11-20T02:47:12;97250.5;;;7.38;100
17950;BME280;9100;48.700;9.316;2022-11-20T02:48:12;97248.1;;;7.37;100
17950;BME280;9100;48.700;9.316;2022-11-20T02:49:12;97244.1;;;7.34;100
17950;BME280;9100;48.700;9.316;2022-11-20T02:49:17;97251.59999999999;;;7.36;100
17950;BME280;9100;48.700;9.316;2022-11-20T02:50:12;97249.2;;;7.34;100
17950;BME280;9100;48.700;9.316;2022-11-20T02:51:12;97248.29999999999;;;7.35;100
17950;BME280;9100;48.700;9.316;2022-11-20T02:52:12;97247.29999999999;;;7.36;100
17950;BME280;9100;48.700;9.316;2022-11-20T02:53:12;97246.3;;;7.37;100
17950;BME280;9100;48.700;9.316;2022-11-20T02:54:12;97245.7;;;7.35;100
17950;BME280;9100;48.700;9.316;2022-11-20T02:54:17;97247.29999999999;;;7.36;100
17950;BME280;9100;48.700;9.316;2022-11-20T02:55:12;97245.4;;;7.38;100
17950;BME280;9100;48.700;9.316;2022-11-20T02:56:12;97244.6;;;7.38;100
17950;BME280;9100;48.700;9.316;2022-11-20T02:57:12;97247.90000000001;;;7.38;100
17950;BME280;9100;48.700;9.316;2022-11-20T02:58:12;97248.90000000001;;;7.37;100
17950;BME280;9100;48.700;9.316;2022-11-20T02:59:12;97248.1;;;7.37;100
17950;BME280;9100;48.700;9.316;2022-11-20T02:59:17;97247.29999999999;;;7.36;100
17950;BME280;9100;48.700;9.316;2022-11-20T03:00:12;97251.4;;;7.37;100
17950;BME280;9100;48.700;9.316;2022-11-20T03:01:12;97250.5;;;7.38;100
17950;BME280;9100;48.700;9.316;2022-11-20T03:02:12;97256.4;;;7.39;100
17950;BME280;9100;48.700;9.316;2022-11-20T03:03:12;97249.90000000001;;;7.36;100
17950;BME280;9100;48.700;9.316;2022-11-20T03:04:12;97257.6;;;7.35;100
17950;BME280;9100;48.700;9.316;2022-11-20T03:04:17;97261;;;7.35;100
17950;BME280;9100;48.700;9.316;2022-11-20T03:05:12;97258.4;;;7.35;100
17950;BME280;9100;48.700;9.316;2022-11-20T03:06:12;97251.8;;;7.34;100
17950;BME280;9100;48.700;9.316;2022-11-20T03:07:12;97258.4;;;7.35;100
17950;BME280;9100;48.700;9.316;2022-11-20T03:08:12;97255.9;;;7.35;100
17950;BME280;9100;48.700;9.316;2022-11-20T03:09:12;97259.40000000001;;;7.34;100
17950;BME280;9100;48.700;9.316;2022-11-20T03:09:17;97261.90000000001;;;7.34;100
17950;BME280;9100;48.700;9.316;2022-11-20T03:10:12;97264.5;;;7.34;100
17950;BME280;9100;48.700;9.316;2022-11-20T03:11:12;97209;;;7.07;100
17950;BME280;9100;48.700;9.316;2022-11-20T03:12:12;97252.70000000001;;;7.33;100
17950;BME280;9100;48.700;9.316;2022-11-20T03:13:12;97258.8;;;7.32;100
17950;BME280;9100;48.700;9.316;2022-11-20T03:14:12;97251.09999999999;;;7.32;100
17950;BME280;9100;48.700;9.316;2022-11-20T03:14:17;97250.5;;;7.3;100
17950;BME280;9100;48.700;9.316;2022-11-20T03:15:12;97254.6;;;7.31;100
17950;BME280;9100;48.700;9.316;2022-11-20T03:16:13;97249.7;;;7.29;100
17950;BME280;9100;48.700;9.316;2022-11-20T03:17:12;97248.8;;;7.3;100
17950;BME280;9100;48.700;9.316;2022-11-20T03:18:12;97245.4;;;7.3;100
17950;BME280;9100;48.700;9.316;2022-11-20T03:19:12;97244;;;7.27;100
17950;BME280;9100;48.700;9.316;2022-11-20T03:19:17;97246.7;;;7.26;100
17950;BME280;9100;48.700;9.316;2022-11-20T03:20:12;97246;;;7.25;100
17950;BME280;9100;48.700;9.316;2022-11-20T03:21:13;97244.4;;;7.24;100
17950;BME280;9100;48.700;9.316;2022-11-20T03:22:12;97248.6;;;7.24;100
17950;BME280;9100;48.700;9.316;2022-11-20T03:23:12;97244.4;;;7.24;100
17950;BME280;9100;48.700;9.316;2022-11-20T03:24:12;97247.90000000001;;;7.23;100
17950;BME280;9100;48.700;9.316;2022-11-20T03:24:17;97251.2;;;7.24;100
17950;BME280;9100;48.700;9.316;2022-11-20T03:25:12;97248.6;;;7.24;100
17950;BME280;9100;48.700;9.316;2022-11-20T03:26:13;97242;;;7.23;100
17950;BME280;9100;48.700;9.316;2022-11-20T03:27:12;97247.90000000001;;;7.23;100
17950;BME280;9100;48.700;9.316;2022-11-20T03:28:12;97241.2;;;7.22;100
17950;BME280;9100;48.700;9.316;2022-11-20T03:29:12;97247.1;;;7.23;100
17950;BME280;9100;48.700;9.316;2022-11-20T03:29:17;97247.90000000001;;;7.23;100
17950;BME280;9100;48.700;9.316;2022-11-20T03:30:12;97254.5;;;7.24;100
17950;BME280;9100;48.700;9.316;2022-11-20T03:31:13;97255.3;;;7.25;100
17950;BME280;9100;48.700;9.316;2022-11-20T03:32:12;97248.6;;;7.24;100
17950;BME280;9100;48.700;9.316;2022-11-20T03:33:12;97254.3;;;7.26;100
17950;BME280;9100;48.700;9.316;2022-11-20T03:34:12;97247.1;;;7.23;100
17950;BME280;9100;48.700;9.316;2022-11-20T03:34:17;97248.6;;;7.24;100
17950;BME280;9100;48.700;9.316;2022-11-20T03:35:12;97241;;;7.24;100
17950;BME280;9100;48.700;9.316;2022-11-20T03:36:13;97245.2;;;7.25;100
17950;BME280;9100;48.700;9.316;2022-11-20T03:37:12;97254.5;;;7.24;100
17950;BME280;9100;48.700;9.316;2022-11-20T03:38:12;97250.40000000001;;;7.23;100
17950;BME280;9100;48.700;9.316;2022-11-20T03:39:12;97247.1;;;7.23;100
17950;BME280;9100;48.700;9.316;2022-11-20T03:39:17;97251.2;;;7.24;100
17950;BME280;9100;48.700;9.316;2022-11-20T03:40:12;97253.7;;;7.24;100
17950;BME280;9100;48.700;9.316;2022-11-20T03:41:14;97247.7;;;7.25;100
17950;BME280;9100;48.700;9.316;2022-11-20T03:42:12;97251.8;;;7.26;100
17950;BME280;9100;48.700;9.316;2022-11-20T03:43:12;97251.8;;;7.26;100
17950;BME280;9100;48.700;9.316;2022-11-20T03:44:12;97251.8;;;7.26;100
17950;BME280;9100;48.700;9.316;2022-11-20T03:44:17;97242.6;;;7.25;100
17950;BME280;9100;48.700;9.316;2022-11-20T03:45:12;97252.59999999999;;;7.26;100
17950;BME280;9100;48.700;9.316;2022-11-20T03:46:12;97214;;;7;100
17950;BME280;9100;48.700;9.316;2022-11-20T03:47:12;97257.5;;;7.28;100
17950;BME280;9100;48.700;9.316;2022-11-20T03:48:12;97209.90000000001;;;6.99;100
17950;BME280;9100;48.700;9.316;2022-11-20T03:49:12;97253.4;;;7.27;100
17950;BME280;9100;48.700;9.316;2022-11-20T03:49:17;97250;;;7.26;100
17950;BME280;9100;48.700;9.316;2022-11-20T03:50:12;97251.5;;;7.29;100
17950;BME280;9100;48.700;9.316;2022-11-20T03:51:13;97251.5;;;7.29;100
17950;BME280;9100;48.700;9.316;2022-11-20T03:52:12;97254.6;;;7.31;100
17950;BME280;9100;48.700;9.316;2022-11-20T03:53:12;97248.8;;;7.3;100
17950;BME280;9100;48.700;9.316;2022-11-20T03:54:12;97251.5;;;7.29;100
17950;BME280;9100;48.700;9.316;2022-11-20T03:54:17;97256.6;;;7.29;100
17950;BME280;9100;48.700;9.316;2022-11-20T03:55:12;97251.5;;;7.29;100
17950;BME280;9100;48.700;9.316;2022-11-20T03:56:13;97251.5;;;7.29;100
17950;BME280;9100;48.700;9.316;2022-11-20T03:57:12;97252.4;;;7.28;100
17950;BME280;9100;48.700;9.316;2022-11-20T03:58:12;97251;;;7.25;100
17950;BME280;9100;48.700;9.316;2022-11-20T03:59:13;97250.2;;;7.25;100
17950;BME280;9100;48.700;9.316;2022-11-20T03:59:17;97246.1;;;7.24;100
17950;BME280;9100;48.700;9.316;2022-11-20T04:00:13;97252.09999999999;;;7.23;100
17950;BME280;9100;48.700;9.316;2022-11-20T04:01:13;97242.2;;;7.21;100
17950;BME280;9100;48.700;9.316;2022-11-20T04:02:12;97246.40000000001;;;7.21;100
17950;BME280;9100;48.700;9.316;2022-11-20T04:03:12;97245;;;7.18;100
17950;BME280;9100;48.700;9.316;2022-11-20T04:04:12;97246.1;;;7.16;100
17950;BME280;9100;48.700;9.316;2022-11-20T04:04:17;97245.5;;;7.14;100
17950;BME280;9100;48.700;9.316;2022-11-20T04:05:12;97249.59999999999;;;7.15;100
17950;BME280;9100;48.700;9.316;2022-11-20T04:06:13;97243.8;;;7.14;100
17950;BME280;9100;48.700;9.316;2022-11-20T04:07:12;97245.7;;;7.12;100
17950;BME280;9100;48.700;9.316;2022-11-20T04:08:12;97244.9;;;7.12;100
17950;BME280;9100;48.700;9.316;2022-11-20T04:09:12;97247.6;;;7.1;100
17950;BME280;9100;48.700;9.316;2022-11-20T04:09:17;97247.40000000001;;;7.12;100
17950;BME280;9100;48.700;9.316;2022-11-20T04:10:12;97203.09999999999;;;6.83;100
17950;BME280;9100;48.700;9.316;2022-11-20T04:11:13;97244.1;;;7.11;100
17950;BME280;9100;48.700;9.316;2022-11-20T04:12:12;97255.1;;;7.12;100
17950;BME280;9100;48.700;9.316;2022-11-20T04:13:12;97246.8;;;7.1;100
17950;BME280;9100;48.700;9.316;2022-11-20T04:14:13;97246.8;;;7.1;100
17950;BME280;9100;48.700;9.316;2022-11-20T04:14:17;97250.3;;;7.09;100
17950;BME280;9100;48.700;9.316;2022-11-20T04:15:12;97250.3;;;7.09;100
17950;BME280;9100;48.700;9.316;2022-11-20T04:16:12;97247.2;;;7.07;100
17950;BME280;9100;48.700;9.316;2022-11-20T04:17:12;97245.6;;;7.06;100
17950;BME280;9100;48.700;9.316;2022-11-20T04:18:12;97244.9;;;7.04;100
17950;BME280;9100;48.700;9.316;2022-11-20T04:19:13;97244.3;;;7.02;100
17950;BME280;9100;48.700;9.316;2022-11-20T04:19:17;97247.6;;;7.02;100
17950;BME280;9100;48.700;9.316;2022-11-20T04:20:12;97242.1;;;6.99;100
17950;BME280;9100;48.700;9.316;2022-11-20T04:21:12;97248.90000000001;;;6.98;100
17950;BME280;9100;48.700;9.316;2022-11-20T04:22:12;97254.4;;;6.95;100
17950;BME280;9100;48.700;9.316;2022-11-20T04:23:12;97247.7;;;6.94;100
17950;BME280;9100;48.700;9.316;2022-11-20T04:24:12;97250.40000000001;;;6.93;100
17950;BME280;9100;48.700;9.316;2022-11-20T04:24:17;97248;;;6.91;100
17950;BME280;9100;48.700;9.316;2022-11-20T04:25:12;97242;;;6.92;100
17950;BME280;9100;48.700;9.316;2022-11-20T04:26:12;97229.6;;;6.81;100
17950;BME280;9100;48.700;9.316;2022-11-20T04:27:12;97238.2;;;6.88;100
17950;BME280;9100;48.700;9.316;2022-11-20T04:28:12;97235.90000000001;;;6.85;100
17950;BME280;9100;48.700;9.316;2022-11-20T04:29:12;97235.29999999999;;;6.83;100
17950;BME280;9100;48.700;9.316;2022-11-20T04:29:17;97240.4;;;6.83;100
17950;BME280;9100;48.700;9.316;2022-11-20T04:30:12;97236.3;;;6.82;100
17950;BME280;9100;48.700;9.316;2022-11-20T04:31:13;97235.5;;;6.81;100
17950;BME280;9100;48.700;9.316;2022-11-20T04:32:12;97231.4;;;6.8;100
17950;BME280;9100;48.700;9.316;2022-11-20T04:33:12;97231.4;;;6.8;100
17950;BME280;9100;48.700;9.316;2022-11-20T04:34:12;97228;;;6.8;100
17950;BME280;9100;48.700;9.316;2022-11-20T04:34:17;97231.4;;;6.8;100
17950;BME280;9100;48.700;9.316;2022-11-20T04:35:12;97232.9;;;6.81;100
17950;BME280;9100;48.700;9.316;2022-11-20T04:36:13;97232;;;6.82;100
17950;BME280;9100;48.700;9.316;2022-11-20T04:37:12;97229.5;;;6.82;100
17950;BME280;9100;48.700;9.316;2022-11-20T04:38:12;97229.5;;;6.82;100